Seekonk, MA

12:49 AM EST on December 25, 2014 (GMT -0500)
Rumford | Change Station
CLOSE
Current Station
Personal Weather Station
Location: East Providence, RI
Elevation: 65 ft
Nearby Weather Stations

Elev 65 ft 41.85 °N, 71.35 °W | Updated 9 minutes ago

Overcast
Overcast
61.7 °F
Feels Like 61.7 °F
N
9.0
Wind Variable Wind from South
Gusts 12.0 mph

Today
High -- | Low -- °F
--% Chance of Precip.
Yesterday
High -- | Low -- °F
Precip. -- in
7:11 AM 4:19 PM
Waxing Crescent, 13% visible
Pressure 29.58 in
Visibility 4.0 miles
Clouds Overcast 800 ft
Dew Point 60 °F
Humidity 96%
Rainfall 0.00 in
Snow Depth Not available.
UV 0.0 out of 12
Pollen .10 out of 12
Air Quality Not available.
Flu Activity Not available.
METAR KPVD 250451Z COR 20020G26KT 4SM BR OVC008 17/16 A2958 RMK AO2 LAST AUGMENTED PK WND 19031/0401 RAE15 SLP017 P0001 T01720161 401780056 $

More Conditions Fewer Conditions

Pressure 29.58 in
Visibility 4.0 miles
Clouds Overcast 800 ft
Dew Point 60 °F
Humidity 96%
Rainfall 0.00 in
Snow Depth Not available.
UV 0.0 out of 12
Pollen .10 out of 12
Air Quality Not available.
Flu Activity Not available.
METAR KPVD 250451Z COR 20020G26KT 4SM BR OVC008 17/16 A2958 RMK AO2 LAST AUGMENTED PK WND 19031/0401 RAE15 SLP017 P0001 T01720161 401780056 $

More Conditions Fewer Conditions

10-Day Weather Forecast

Almanac

Astronomy

Dec. 25, 2014 Rise Set
Actual Time
Civil Twilight
Nautical Twilight
Astronomical Twilight
Moon
Length of Visible Light
Length of Day
Tomorrow will be .
, % of the Moon is Illuminated

Today's Extremes

State Highs State Lows

Community

WunderPhotos

Upload Photos

1,780,244 photos uploaded!

WunderBlogs® & News

Nearby

Air Quality

  Air Quality AQ Index Pollutant
Not available.

Snow Depth

Station Depth Elevation

Earthquake Activity

City Distance Mag. Time & Date
Minimum magnitude displayed is 2.5.

Coastal Water Temperatures

Place Temperature

Nearby Weather Stations